BOS weather

General Edward Lawrence Logan International Airport
Boston, Massachusetts, United States

Public forecast

Using degrees Fahrenheit for public forecast. Weather courtesy of forecast.io.

Current aviation weather report (METAR) for General Edward Lawrence Logan International Airport

Retrieved 2019/10/23 01:06 UTC (0 seconds ago):

KBOS 230106Z 07013KT 2 1/2SM -RA BR BKN005 OVC009 14/12 A2997 RMK AO2 DZE02RAB02 P0000 T01390117

Aviation forecast (TAF) for General Edward Lawrence Logan International Airport

Retrieved 2019-10-23 00:28 UTC (33 minutes ago):

TAF KBOS 222323Z 2300/2406 07012KT 2SM -SHRA BR OVC003 FM230500 11010G20KT 1SM -SHRA BR OVC003 FM231100 20006KT 2SM -SHRA BR OVC005 FM231400 27009KT 3SM BR BKN008 FM231500 28011G22KT P6SM BKN020 FM231600 28012G21KT P6SM SCT250